sensor_id;sensor_type;location;lat;lon;timestamp;temperature;humidity
44843;DHT22;31884;52.538;13.820;2024-01-10T00:00:09;-10.10;99.90
44843;DHT22;31884;52.538;13.820;2024-01-10T00:02:35;-10.10;99.90
44843;DHT22;31884;52.538;13.820;2024-01-10T00:05:00;-10.10;99.90
44843;DHT22;31884;52.538;13.820;2024-01-10T00:07:26;-10.20;99.90
44843;DHT22;31884;52.538;13.820;2024-01-10T00:09:51;-10.20;99.90
44843;DHT22;31884;52.538;13.820;2024-01-10T00:12:17;-10.20;99.90
44843;DHT22;31884;52.538;13.820;2024-01-10T00:14:42;-10.20;99.90
44843;DHT22;31884;52.538;13.820;2024-01-10T00:17:08;-10.20;99.90
44843;DHT22;31884;52.538;13.820;2024-01-10T00:19:33;-10.10;99.90
44843;DHT22;31884;52.538;13.820;2024-01-10T00:21:59;-10.10;99.90
44843;DHT22;31884;52.538;13.820;2024-01-10T00:24:24;-10.20;99.90
44843;DHT22;31884;52.538;13.820;2024-01-10T00:26:50;-10.20;99.90
44843;DHT22;31884;52.538;13.820;2024-01-10T00:29:15;-10.20;99.90
44843;DHT22;31884;52.538;13.820;2024-01-10T00:31:41;-10.30;99.90
44843;DHT22;31884;52.538;13.820;2024-01-10T00:34:06;-10.30;99.90
44843;DHT22;31884;52.538;13.820;2024-01-10T00:36:32;-10.30;99.90
44843;DHT22;31884;52.538;13.820;2024-01-10T00:38:57;-10.30;99.90
44843;DHT22;31884;52.538;13.820;2024-01-10T00:41:23;-10.30;99.90
44843;DHT22;31884;52.538;13.820;2024-01-10T00:43:48;-10.30;99.90
44843;DHT22;31884;52.538;13.820;2024-01-10T00:46:14;-10.30;99.90
44843;DHT22;31884;52.538;13.820;2024-01-10T00:48:39;-10.30;99.90
44843;DHT22;31884;52.538;13.820;2024-01-10T00:51:05;-10.30;99.90
44843;DHT22;31884;52.538;13.820;2024-01-10T00:53:34;-10.40;99.90
44843;DHT22;31884;52.538;13.820;2024-01-10T00:56:00;-10.40;99.90
44843;DHT22;31884;52.538;13.820;2024-01-10T00:58:25;-10.40;99.90
44843;DHT22;31884;52.538;13.820;2024-01-10T01:00:51;-10.40;99.90
44843;DHT22;31884;52.538;13.820;2024-01-10T01:03:16;-10.40;99.90
44843;DHT22;31884;52.538;13.820;2024-01-10T01:05:41;-10.40;99.90
44843;DHT22;31884;52.538;13.820;2024-01-10T01:08:07;-10.40;99.90
44843;DHT22;31884;52.538;13.820;2024-01-10T01:10:33;-10.40;99.90
44843;DHT22;31884;52.538;13.820;2024-01-10T01:12:59;-10.50;99.90
44843;DHT22;31884;52.538;13.820;2024-01-10T01:15:24;-10.50;99.90
44843;DHT22;31884;52.538;13.820;2024-01-10T01:17:50;-10.50;99.90
44843;DHT22;31884;52.538;13.820;2024-01-10T01:20:15;-10.50;99.90
44843;DHT22;31884;52.538;13.820;2024-01-10T01:22:41;-10.50;99.90
44843;DHT22;31884;52.538;13.820;2024-01-10T01:25:07;-10.50;99.90
44843;DHT22;31884;52.538;13.820;2024-01-10T01:27:32;-10.50;99.90
44843;DHT22;31884;52.538;13.820;2024-01-10T01:29:58;-10.40;99.90
44843;DHT22;31884;52.538;13.820;2024-01-10T01:32:23;-10.40;99.90
44843;DHT22;31884;52.538;13.820;2024-01-10T01:34:49;-10.40;99.90
44843;DHT22;31884;52.538;13.820;2024-01-10T01:37:15;-10.40;99.90
44843;DHT22;31884;52.538;13.820;2024-01-10T01:39:40;-10.40;99.90
44843;DHT22;31884;52.538;13.820;2024-01-10T01:42:06;-10.40;99.90
44843;DHT22;31884;52.538;13.820;2024-01-10T01:44:31;-10.40;99.90
44843;DHT22;31884;52.538;13.820;2024-01-10T01:46:57;-10.50;99.90
44843;DHT22;31884;52.538;13.820;2024-01-10T01:49:24;-10.50;99.90
44843;DHT22;31884;52.538;13.820;2024-01-10T01:51:50;-10.50;99.90
44843;DHT22;31884;52.538;13.820;2024-01-10T01:54:16;-10.50;99.90
44843;DHT22;31884;52.538;13.820;2024-01-10T01:56:44;-10.50;99.90
44843;DHT22;31884;52.538;13.820;2024-01-10T01:59:10;-10.40;99.90
44843;DHT22;31884;52.538;13.820;2024-01-10T02:01:36;-10.40;99.90
44843;DHT22;31884;52.538;13.820;2024-01-10T02:04:02;-10.40;99.90
44843;DHT22;31884;52.538;13.820;2024-01-10T02:06:29;-10.40;99.90
44843;DHT22;31884;52.538;13.820;2024-01-10T02:08:56;-10.30;99.90
44843;DHT22;31884;52.538;13.820;2024-01-10T02:11:21;-10.30;99.90
44843;DHT22;31884;52.538;13.820;2024-01-10T02:13:47;-10.30;99.90
44843;DHT22;31884;52.538;13.820;2024-01-10T02:16:13;-10.30;99.90
44843;DHT22;31884;52.538;13.820;2024-01-10T02:18:39;-10.30;99.90
44843;DHT22;31884;52.538;13.820;2024-01-10T02:21:04;-10.30;99.90
44843;DHT22;31884;52.538;13.820;2024-01-10T02:23:30;-10.30;99.90
44843;DHT22;31884;52.538;13.820;2024-01-10T02:25:55;-10.30;99.90
44843;DHT22;31884;52.538;13.820;2024-01-10T02:28:21;-10.30;99.90
44843;DHT22;31884;52.538;13.820;2024-01-10T02:30:49;-10.20;99.90
44843;DHT22;31884;52.538;13.820;2024-01-10T02:33:15;-10.30;99.90
44843;DHT22;31884;52.538;13.820;2024-01-10T02:35:40;-10.30;99.90
44843;DHT22;31884;52.538;13.820;2024-01-10T02:38:06;-10.20;99.90
44843;DHT22;31884;52.538;13.820;2024-01-10T02:40:31;-10.20;99.90
44843;DHT22;31884;52.538;13.820;2024-01-10T02:42:57;-10.20;99.90
44843;DHT22;31884;52.538;13.820;2024-01-10T02:45:22;-10.20;99.90
44843;DHT22;31884;52.538;13.820;2024-01-10T02:47:48;-10.20;99.90
44843;DHT22;31884;52.538;13.820;2024-01-10T02:50:13;-10.20;99.90
44843;DHT22;31884;52.538;13.820;2024-01-10T02:52:39;-10.20;99.90
44843;DHT22;31884;52.538;13.820;2024-01-10T02:55:04;-10.20;99.90
44843;DHT22;31884;52.538;13.820;2024-01-10T02:57:30;-10.20;99.90
44843;DHT22;31884;52.538;13.820;2024-01-10T02:59:55;-10.20;99.90
44843;DHT22;31884;52.538;13.820;2024-01-10T03:02:21;-10.20;99.90
44843;DHT22;31884;52.538;13.820;2024-01-10T03:04:48;-10.20;99.90
44843;DHT22;31884;52.538;13.820;2024-01-10T03:07:14;-10.20;99.90
44843;DHT22;31884;52.538;13.820;2024-01-10T03:09:39;-10.20;99.90
44843;DHT22;31884;52.538;13.820;2024-01-10T03:12:05;-10.20;99.90
44843;DHT22;31884;52.538;13.820;2024-01-10T03:14:30;-10.20;99.90
44843;DHT22;31884;52.538;13.820;2024-01-10T03:16:57;-10.20;99.90
44843;DHT22;31884;52.538;13.820;2024-01-10T03:19:23;-10.10;99.90
44843;DHT22;31884;52.538;13.820;2024-01-10T03:21:48;-10.10;99.90
44843;DHT22;31884;52.538;13.820;2024-01-10T03:24:14;-10.10;99.90
44843;DHT22;31884;52.538;13.820;2024-01-10T03:26:39;-10.10;99.90
44843;DHT22;31884;52.538;13.820;2024-01-10T03:29:05;-10.10;99.90
44843;DHT22;31884;52.538;13.820;2024-01-10T03:31:30;-10.10;99.90
44843;DHT22;31884;52.538;13.820;2024-01-10T03:33:57;-10.10;99.90
44843;DHT22;31884;52.538;13.820;2024-01-10T03:36:24;-10.10;99.90
44843;DHT22;31884;52.538;13.820;2024-01-10T03:38:50;-10.10;99.90
44843;DHT22;31884;52.538;13.820;2024-01-10T03:41:19;-10.20;99.90
44843;DHT22;31884;52.538;13.820;2024-01-10T03:43:45;-10.20;99.90
44843;DHT22;31884;52.538;13.820;2024-01-10T03:46:11;-10.20;99.90
44843;DHT22;31884;52.538;13.820;2024-01-10T03:48:36;-10.20;99.90
44843;DHT22;31884;52.538;13.820;2024-01-10T03:51:02;-10.20;99.90
44843;DHT22;31884;52.538;13.820;2024-01-10T03:53:28;-10.20;99.90
44843;DHT22;31884;52.538;13.820;2024-01-10T03:55:54;-10.20;99.90
44843;DHT22;31884;52.538;13.820;2024-01-10T03:58:19;-10.20;99.90
44843;DHT22;31884;52.538;13.820;2024-01-10T04:00:45;-10.30;99.90
44843;DHT22;31884;52.538;13.820;2024-01-10T04:03:10;-10.30;99.90
44843;DHT22;31884;52.538;13.820;2024-01-10T04:05:36;-10.30;99.90
44843;DHT22;31884;52.538;13.820;2024-01-10T04:08:01;-10.30;99.90
44843;DHT22;31884;52.538;13.820;2024-01-10T04:10:27;-10.30;99.90
44843;DHT22;31884;52.538;13.820;2024-01-10T04:12:53;-10.30;99.90
44843;DHT22;31884;52.538;13.820;2024-01-10T04:15:19;-10.40;99.90
44843;DHT22;31884;52.538;13.820;2024-01-10T04:17:44;-10.40;99.90
44843;DHT22;31884;52.538;13.820;2024-01-10T04:20:10;-10.40;99.90
44843;DHT22;31884;52.538;13.820;2024-01-10T04:22:36;-10.40;99.90
44843;DHT22;31884;52.538;13.820;2024-01-10T04:25:04;-10.40;99.90
44843;DHT22;31884;52.538;13.820;2024-01-10T04:27:30;-10.40;99.90
44843;DHT22;31884;52.538;13.820;2024-01-10T04:29:56;-10.40;99.90
44843;DHT22;31884;52.538;13.820;2024-01-10T04:32:21;-10.50;99.90
44843;DHT22;31884;52.538;13.820;2024-01-10T04:34:47;-10.50;99.90
44843;DHT22;31884;52.538;13.820;2024-01-10T04:37:12;-10.50;99.90
44843;DHT22;31884;52.538;13.820;2024-01-10T04:39:39;-10.40;99.90
44843;DHT22;31884;52.538;13.820;2024-01-10T04:42:05;-10.40;99.90
44843;DHT22;31884;52.538;13.820;2024-01-10T04:44:31;-10.40;99.90
44843;DHT22;31884;52.538;13.820;2024-01-10T04:46:56;-10.40;99.90
44843;DHT22;31884;52.538;13.820;2024-01-10T04:49:22;-10.40;99.90
44843;DHT22;31884;52.538;13.820;2024-01-10T04:51:48;-10.40;99.90
44843;DHT22;31884;52.538;13.820;2024-01-10T04:54:13;-10.40;99.90
44843;DHT22;31884;52.538;13.820;2024-01-10T04:56:39;-10.40;99.90
44843;DHT22;31884;52.538;13.820;2024-01-10T04:59:05;-10.40;99.90
44843;DHT22;31884;52.538;13.820;2024-01-10T05:01:31;-10.40;99.90
44843;DHT22;31884;52.538;13.820;2024-01-10T05:03:57;-10.50;99.90
44843;DHT22;31884;52.538;13.820;2024-01-10T05:06:23;-10.50;99.90
44843;DHT22;31884;52.538;13.820;2024-01-10T05:08:48;-10.50;99.90
44843;DHT22;31884;52.538;13.820;2024-01-10T05:11:15;-10.50;99.90
44843;DHT22;31884;52.538;13.820;2024-01-10T05:13:40;-10.50;99.90
44843;DHT22;31884;52.538;13.820;2024-01-10T05:16:06;-10.50;99.90
44843;DHT22;31884;52.538;13.820;2024-01-10T05:18:32;-10.50;99.90
44843;DHT22;31884;52.538;13.820;2024-01-10T05:20:58;-10.50;99.90
44843;DHT22;31884;52.538;13.820;2024-01-10T05:23:24;-10.50;99.90
44843;DHT22;31884;52.538;13.820;2024-01-10T05:25:50;-10.50;99.90
44843;DHT22;31884;52.538;13.820;2024-01-10T05:28:16;-10.50;99.90
44843;DHT22;31884;52.538;13.820;2024-01-10T05:30:41;-10.50;99.90
44843;DHT22;31884;52.538;13.820;2024-01-10T05:33:08;-10.50;99.90
44843;DHT22;31884;52.538;13.820;2024-01-10T05:35:34;-10.40;99.90
44843;DHT22;31884;52.538;13.820;2024-01-10T05:38:01;-10.50;99.90
44843;DHT22;31884;52.538;13.820;2024-01-10T05:40:28;-10.50;99.90
44843;DHT22;31884;52.538;13.820;2024-01-10T05:42:55;-10.50;99.90
44843;DHT22;31884;52.538;13.820;2024-01-10T05:45:21;-10.50;99.90
44843;DHT22;31884;52.538;13.820;2024-01-10T05:47:46;-10.50;99.90
44843;DHT22;31884;52.538;13.820;2024-01-10T05:50:13;-10.60;99.90
44843;DHT22;31884;52.538;13.820;2024-01-10T05:52:39;-10.50;99.90
44843;DHT22;31884;52.538;13.820;2024-01-10T05:55:05;-10.60;99.90
44843;DHT22;31884;52.538;13.820;2024-01-10T05:57:31;-10.60;99.90
44843;DHT22;31884;52.538;13.820;2024-01-10T05:59:57;-10.60;99.90
44843;DHT22;31884;52.538;13.820;2024-01-10T06:02:23;-10.60;99.90
44843;DHT22;31884;52.538;13.820;2024-01-10T06:04:50;-10.60;99.90
44843;DHT22;31884;52.538;13.820;2024-01-10T06:07:15;-10.60;99.90
44843;DHT22;31884;52.538;13.820;2024-01-10T06:09:41;-10.60;99.90
44843;DHT22;31884;52.538;13.820;2024-01-10T06:12:09;-10.70;99.90
44843;DHT22;31884;52.538;13.820;2024-01-10T06:14:34;-10.70;99.90
44843;DHT22;31884;52.538;13.820;2024-01-10T06:17:00;-10.70;99.90
44843;DHT22;31884;52.538;13.820;2024-01-10T06:19:26;-10.70;99.90
44843;DHT22;31884;52.538;13.820;2024-01-10T06:21:52;-10.70;99.90
44843;DHT22;31884;52.538;13.820;2024-01-10T06:24:18;-10.80;99.90
44843;DHT22;31884;52.538;13.820;2024-01-10T06:26:44;-10.80;99.90
44843;DHT22;31884;52.538;13.820;2024-01-10T06:29:09;-10.70;99.90
44843;DHT22;31884;52.538;13.820;2024-01-10T06:31:35;-10.80;99.90
44843;DHT22;31884;52.538;13.820;2024-01-10T06:34:01;-10.80;99.90
44843;DHT22;31884;52.538;13.820;2024-01-10T06:36:26;-10.80;99.90
44843;DHT22;31884;52.538;13.820;2024-01-10T06:38:52;-10.80;99.90
44843;DHT22;31884;52.538;13.820;2024-01-10T06:41:21;-10.80;99.90
44843;DHT22;31884;52.538;13.820;2024-01-10T06:43:48;-10.80;99.90
44843;DHT22;31884;52.538;13.820;2024-01-10T06:46:13;-10.80;99.90
44843;DHT22;31884;52.538;13.820;2024-01-10T06:48:39;-10.80;99.90
44843;DHT22;31884;52.538;13.820;2024-01-10T06:51:09;-10.80;99.90
44843;DHT22;31884;52.538;13.820;2024-01-10T06:53:36;-10.80;99.90
44843;DHT22;31884;52.538;13.820;2024-01-10T06:56:01;-10.80;99.90
44843;DHT22;31884;52.538;13.820;2024-01-10T06:58:27;-10.80;99.90
44843;DHT22;31884;52.538;13.820;2024-01-10T07:00:52;-10.80;99.90
44843;DHT22;31884;52.538;13.820;2024-01-10T07:03:18;-10.80;99.90
44843;DHT22;31884;52.538;13.820;2024-01-10T07:05:44;-10.80;99.90
44843;DHT22;31884;52.538;13.820;2024-01-10T07:08:09;-10.80;99.90
44843;DHT22;31884;52.538;13.820;2024-01-10T07:10:35;-10.80;99.90
44843;DHT22;31884;52.538;13.820;2024-01-10T07:13:00;-10.80;99.90
44843;DHT22;31884;52.538;13.820;2024-01-10T07:15:29;-10.80;99.90
44843;DHT22;31884;52.538;13.820;2024-01-10T07:17:55;-10.80;99.90
44843;DHT22;31884;52.538;13.820;2024-01-10T07:20:21;-10.80;99.90
44843;DHT22;31884;52.538;13.820;2024-01-10T07:22:49;-10.70;99.90
44843;DHT22;31884;52.538;13.820;2024-01-10T07:25:15;-10.70;99.90
44843;DHT22;31884;52.538;13.820;2024-01-10T07:27:41;-10.70;99.90
44843;DHT22;31884;52.538;13.820;2024-01-10T07:30:07;-10.70;99.90
44843;DHT22;31884;52.538;13.820;2024-01-10T07:32:42;-10.70;99.90
44843;DHT22;31884;52.538;13.820;2024-01-10T07:35:08;-10.70;99.90
44843;DHT22;31884;52.538;13.820;2024-01-10T07:37:38;-10.60;99.90
44843;DHT22;31884;52.538;13.820;2024-01-10T07:40:05;-10.60;99.90
44843;DHT22;31884;52.538;13.820;2024-01-10T07:42:32;-10.50;99.90
44843;DHT22;31884;52.538;13.820;2024-01-10T07:44:58;-10.50;99.90
44843;DHT22;31884;52.538;13.820;2024-01-10T07:47:23;-10.50;99.90
44843;DHT22;31884;52.538;13.820;2024-01-10T07:49:48;-10.40;99.90
44843;DHT22;31884;52.538;13.820;2024-01-10T07:52:14;-10.40;99.90
44843;DHT22;31884;52.538;13.820;2024-01-10T07:54:41;-10.40;99.90
44843;DHT22;31884;52.538;13.820;2024-01-10T07:57:07;-10.30;99.90
44843;DHT22;31884;52.538;13.820;2024-01-10T07:59:33;-10.30;99.90
44843;DHT22;31884;52.538;13.820;2024-01-10T08:02:00;-10.20;99.90
44843;DHT22;31884;52.538;13.820;2024-01-10T08:04:26;-10.10;99.90
44843;DHT22;31884;52.538;13.820;2024-01-10T08:06:52;-10.10;99.90
44843;DHT22;31884;52.538;13.820;2024-01-10T08:09:18;-10.00;99.90
44843;DHT22;31884;52.538;13.820;2024-01-10T08:11:47;-9.90;99.90
44843;DHT22;31884;52.538;13.820;2024-01-10T08:14:13;-9.80;99.90
44843;DHT22;31884;52.538;13.820;2024-01-10T08:16:39;-9.70;99.90
44843;DHT22;31884;52.538;13.820;2024-01-10T08:19:04;-9.60;99.90
44843;DHT22;31884;52.538;13.820;2024-01-10T08:21:30;-9.50;99.90
44843;DHT22;31884;52.538;13.820;2024-01-10T08:23:55;-9.40;99.90
44843;DHT22;31884;52.538;13.820;2024-01-10T08:26:21;-9.20;99.90
44843;DHT22;31884;52.538;13.820;2024-01-10T08:28:46;-9.10;99.90
44843;DHT22;31884;52.538;13.820;2024-01-10T08:31:12;-8.90;99.90
44843;DHT22;31884;52.538;13.820;2024-01-10T08:33:41;-8.70;99.90
44843;DHT22;31884;52.538;13.820;2024-01-10T08:36:07;-8.40;99.90
44843;DHT22;31884;52.538;13.820;2024-01-10T08:38:32;-8.10;99.90
44843;DHT22;31884;52.538;13.820;2024-01-10T08:40:58;-8.00;99.90
44843;DHT22;31884;52.538;13.820;2024-01-10T08:43:23;-7.70;99.90
44843;DHT22;31884;52.538;13.820;2024-01-10T08:45:49;-7.60;99.90
44843;DHT22;31884;52.538;13.820;2024-01-10T08:48:14;-7.40;99.90
44843;DHT22;31884;52.538;13.820;2024-01-10T08:50:40;-7.20;99.90
44843;DHT22;31884;52.538;13.820;2024-01-10T08:53:06;-7.00;99.90
44843;DHT22;31884;52.538;13.820;2024-01-10T08:55:32;-6.80;99.90
44843;DHT22;31884;52.538;13.820;2024-01-10T08:57:59;-6.60;99.90
44843;DHT22;31884;52.538;13.820;2024-01-10T09:00:24;-6.40;99.90
44843;DHT22;31884;52.538;13.820;2024-01-10T09:02:50;-6.20;99.90
44843;DHT22;31884;52.538;13.820;2024-01-10T09:05:16;-6.00;99.90
44843;DHT22;31884;52.538;13.820;2024-01-10T09:07:41;-5.80;99.90
44843;DHT22;31884;52.538;13.820;2024-01-10T09:10:08;-5.60;99.90
44843;DHT22;31884;52.538;13.820;2024-01-10T09:12:34;-5.40;99.90
44843;DHT22;31884;52.538;13.820;2024-01-10T09:15:00;-5.20;99.90
44843;DHT22;31884;52.538;13.820;2024-01-10T09:17:26;-5.00;99.90
44843;DHT22;31884;52.538;13.820;2024-01-10T09:19:53;-4.80;99.90
44843;DHT22;31884;52.538;13.820;2024-01-10T09:22:18;-4.70;99.90
44843;DHT22;31884;52.538;13.820;2024-01-10T09:24:44;-4.60;99.90
44843;DHT22;31884;52.538;13.820;2024-01-10T09:27:10;-4.50;99.90
44843;DHT22;31884;52.538;13.820;2024-01-10T09:29:35;-4.40;99.90
44843;DHT22;31884;52.538;13.820;2024-01-10T09:32:01;-4.30;99.90
44843;DHT22;31884;52.538;13.820;2024-01-10T09:34:27;-4.30;99.90
44843;DHT22;31884;52.538;13.820;2024-01-10T09:36:52;-4.30;99.20
44843;DHT22;31884;52.538;13.820;2024-01-10T09:39:18;-4.20;98.10
44843;DHT22;31884;52.538;13.820;2024-01-10T09:41:47;-4.20;96.10
44843;DHT22;31884;52.538;13.820;2024-01-10T09:44:14;-4.20;94.20
44843;DHT22;31884;52.538;13.820;2024-01-10T09:46:41;-4.20;94.10
44843;DHT22;31884;52.538;13.820;2024-01-10T09:49:09;-4.10;93.20
44843;DHT22;31884;52.538;13.820;2024-01-10T09:51:34;-4.10;92.90
44843;DHT22;31884;52.538;13.820;2024-01-10T09:54:02;-4.00;92.20
44843;DHT22;31884;52.538;13.820;2024-01-10T09:56:28;-4.00;90.70
44843;DHT22;31884;52.538;13.820;2024-01-10T09:58:55;-3.90;91.10
44843;DHT22;31884;52.538;13.820;2024-01-10T10:01:24;-3.90;90.40
44843;DHT22;31884;52.538;13.820;2024-01-10T10:03:50;-3.80;90.50
44843;DHT22;31884;52.538;13.820;2024-01-10T10:06:16;-3.70;90.10
44843;DHT22;31884;52.538;13.820;2024-01-10T10:08:41;-3.60;89.60
44843;DHT22;31884;52.538;13.820;2024-01-10T10:11:11;-3.50;88.50
44843;DHT22;31884;52.538;13.820;2024-01-10T10:13:38;-3.50;87.40
44843;DHT22;31884;52.538;13.820;2024-01-10T10:16:07;-3.40;85.90
44843;DHT22;31884;52.538;13.820;2024-01-10T10:18:35;-3.40;87.30
44843;DHT22;31884;52.538;13.820;2024-01-10T10:21:09;-3.30;87.30
44843;DHT22;31884;52.538;13.820;2024-01-10T10:23:36;-3.20;87.40
44843;DHT22;31884;52.538;13.820;2024-01-10T10:26:10;-3.20;86.10
44843;DHT22;31884;52.538;13.820;2024-01-10T10:28:36;-3.10;86.50
44843;DHT22;31884;52.538;13.820;2024-01-10T10:31:02;-3.10;85.10
44843;DHT22;31884;52.538;13.820;2024-01-10T10:33:28;-3.20;82.90
44843;DHT22;31884;52.538;13.820;2024-01-10T10:35:55;-3.20;83.50
44843;DHT22;31884;52.538;13.820;2024-01-10T10:38:22;-3.20;82.30
44843;DHT22;31884;52.538;13.820;2024-01-10T10:40:48;-3.20;82.90
44843;DHT22;31884;52.538;13.820;2024-01-10T10:43:14;-3.20;82.50
44843;DHT22;31884;52.538;13.820;2024-01-10T10:45:47;-3.20;83.80
44843;DHT22;31884;52.538;13.820;2024-01-10T10:48:16;-3.20;83.00
44843;DHT22;31884;52.538;13.820;2024-01-10T10:51:05;-3.10;82.40
44843;DHT22;31884;52.538;13.820;2024-01-10T10:53:33;-3.10;80.70
44843;DHT22;31884;52.538;13.820;2024-01-10T10:56:00;-3.20;79.80
44843;DHT22;31884;52.538;13.820;2024-01-10T10:58:27;-3.10;80.50
44843;DHT22;31884;52.538;13.820;2024-01-10T11:00:53;-3.10;80.70
44843;DHT22;31884;52.538;13.820;2024-01-10T11:03:20;-3.10;80.40
44843;DHT22;31884;52.538;13.820;2024-01-10T11:05:47;-3.10;79.80
44843;DHT22;31884;52.538;13.820;2024-01-10T11:08:15;-3.10;80.80
44843;DHT22;31884;52.538;13.820;2024-01-10T11:10:42;-3.10;77.80
44843;DHT22;31884;52.538;13.820;2024-01-10T11:13:28;-3.10;78.50
44843;DHT22;31884;52.538;13.820;2024-01-10T11:21:39;-3.10;79.80
44843;DHT22;31884;52.538;13.820;2024-01-10T11:24:11;-3.00;79.00
44843;DHT22;31884;52.538;13.820;2024-01-10T11:26:37;-3.00;76.30
44843;DHT22;31884;52.538;13.820;2024-01-10T11:29:04;-3.00;76.30
44843;DHT22;31884;52.538;13.820;2024-01-10T11:31:31;-3.00;76.20
44843;DHT22;31884;52.538;13.820;2024-01-10T11:33:58;-3.00;77.00
44843;DHT22;31884;52.538;13.820;2024-01-10T11:36:23;-3.00;76.20
44843;DHT22;31884;52.538;13.820;2024-01-10T11:41:29;-3.00;73.90
44843;DHT22;31884;52.538;13.820;2024-01-10T11:46:42;-2.90;75.00
44843;DHT22;31884;52.538;13.820;2024-01-10T11:49:11;-2.90;75.50
44843;DHT22;31884;52.538;13.820;2024-01-10T11:51:37;-2.80;75.80
44843;DHT22;31884;52.538;13.820;2024-01-10T11:54:03;-2.80;75.40
44843;DHT22;31884;52.538;13.820;2024-01-10T11:56:41;-2.80;75.50
44843;DHT22;31884;52.538;13.820;2024-01-10T11:59:11;-2.70;74.70
44843;DHT22;31884;52.538;13.820;2024-01-10T12:01:38;-2.70;74.80
44843;DHT22;31884;52.538;13.820;2024-01-10T12:04:05;-2.70;74.30
44843;DHT22;31884;52.538;13.820;2024-01-10T12:06:31;-2.70;74.10
44843;DHT22;31884;52.538;13.820;2024-01-10T12:08:57;-2.60;73.70
44843;DHT22;31884;52.538;13.820;2024-01-10T12:11:23;-2.60;73.60
44843;DHT22;31884;52.538;13.820;2024-01-10T12:13:48;-2.60;72.60
44843;DHT22;31884;52.538;13.820;2024-01-10T12:16:14;-2.60;72.80
44843;DHT22;31884;52.538;13.820;2024-01-10T12:18:41;-2.50;72.00
44843;DHT22;31884;52.538;13.820;2024-01-10T12:21:07;-2.50;72.70
44843;DHT22;31884;52.538;13.820;2024-01-10T12:23:37;-2.40;71.60
44843;DHT22;31884;52.538;13.820;2024-01-10T12:26:10;-2.40;71.90
44843;DHT22;31884;52.538;13.820;2024-01-10T12:28:39;-2.30;71.40
44843;DHT22;31884;52.538;13.820;2024-01-10T12:31:06;-2.30;71.50
44843;DHT22;31884;52.538;13.820;2024-01-10T12:33:37;-2.30;70.20
44843;DHT22;31884;52.538;13.820;2024-01-10T12:36:10;-2.30;70.30
44843;DHT22;31884;52.538;13.820;2024-01-10T12:38:37;-2.30;69.90
44843;DHT22;31884;52.538;13.820;2024-01-10T12:41:04;-2.30;70.20
44843;DHT22;31884;52.538;13.820;2024-01-10T12:43:32;-2.30;69.50
44843;DHT22;31884;52.538;13.820;2024-01-10T12:46:09;-2.20;69.90
44843;DHT22;31884;52.538;13.820;2024-01-10T12:48:41;-2.20;68.70
44843;DHT22;31884;52.538;13.820;2024-01-10T12:51:12;-2.20;66.60
44843;DHT22;31884;52.538;13.820;2024-01-10T12:53:42;-2.20;67.10
44843;DHT22;31884;52.538;13.820;2024-01-10T12:56:10;-2.20;66.70
44843;DHT22;31884;52.538;13.820;2024-01-10T12:58:40;-2.20;67.30
44843;DHT22;31884;52.538;13.820;2024-01-10T13:01:08;-2.20;67.00
44843;DHT22;31884;52.538;13.820;2024-01-10T13:03:34;-2.20;67.20
44843;DHT22;31884;52.538;13.820;2024-01-10T13:05:59;-2.10;67.10
44843;DHT22;31884;52.538;13.820;2024-01-10T13:08:25;-2.10;65.50
44843;DHT22;31884;52.538;13.820;2024-01-10T13:10:50;-2.00;65.70
44843;DHT22;31884;52.538;13.820;2024-01-10T13:13:16;-2.10;66.00
44843;DHT22;31884;52.538;13.820;2024-01-10T13:15:47;-2.10;65.00
44843;DHT22;31884;52.538;13.820;2024-01-10T13:18:12;-2.10;65.70
44843;DHT22;31884;52.538;13.820;2024-01-10T13:20:39;-2.10;65.50
44843;DHT22;31884;52.538;13.820;2024-01-10T13:23:05;-2.10;65.30
44843;DHT22;31884;52.538;13.820;2024-01-10T13:25:31;-2.10;64.60
44843;DHT22;31884;52.538;13.820;2024-01-10T13:27:56;-2.10;64.70
44843;DHT22;31884;52.538;13.820;2024-01-10T13:30:22;-2.10;64.80
44843;DHT22;31884;52.538;13.820;2024-01-10T13:32:48;-2.10;64.80
44843;DHT22;31884;52.538;13.820;2024-01-10T13:35:14;-2.10;63.80
44843;DHT22;31884;52.538;13.820;2024-01-10T13:37:41;-2.10;63.10
44843;DHT22;31884;52.538;13.820;2024-01-10T13:40:08;-2.20;62.50
44843;DHT22;31884;52.538;13.820;2024-01-10T13:42:43;-2.20;63.40
44843;DHT22;31884;52.538;13.820;2024-01-10T13:45:09;-2.20;62.90
44843;DHT22;31884;52.538;13.820;2024-01-10T13:47:39;-2.10;64.20
44843;DHT22;31884;52.538;13.820;2024-01-10T13:50:05;-2.20;64.50
44843;DHT22;31884;52.538;13.820;2024-01-10T13:52:32;-2.20;63.20
44843;DHT22;31884;52.538;13.820;2024-01-10T13:54:57;-2.20;63.90
44843;DHT22;31884;52.538;13.820;2024-01-10T13:57:23;-2.20;63.60
44843;DHT22;31884;52.538;13.820;2024-01-10T13:59:49;-2.20;62.30
44843;DHT22;31884;52.538;13.820;2024-01-10T14:02:14;-2.20;63.80
44843;DHT22;31884;52.538;13.820;2024-01-10T14:04:41;-2.20;63.10
44843;DHT22;31884;52.538;13.820;2024-01-10T14:07:06;-2.30;63.10
44843;DHT22;31884;52.538;13.820;2024-01-10T14:09:32;-2.30;63.70
44843;DHT22;31884;52.538;13.820;2024-01-10T14:11:57;-2.20;62.90
44843;DHT22;31884;52.538;13.820;2024-01-10T14:14:23;-2.30;63.30
44843;DHT22;31884;52.538;13.820;2024-01-10T14:16:49;-2.30;63.20
44843;DHT22;31884;52.538;13.820;2024-01-10T14:19:15;-2.30;63.50
44843;DHT22;31884;52.538;13.820;2024-01-10T14:21:42;-2.40;63.30
44843;DHT22;31884;52.538;13.820;2024-01-10T14:24:08;-2.40;62.70
44843;DHT22;31884;52.538;13.820;2024-01-10T14:26:33;-2.40;63.20
44843;DHT22;31884;52.538;13.820;2024-01-10T14:28:59;-2.50;63.60
44843;DHT22;31884;52.538;13.820;2024-01-10T14:31:24;-2.60;64.10
44843;DHT22;31884;52.538;13.820;2024-01-10T14:33:50;-2.60;64.60
44843;DHT22;31884;52.538;13.820;2024-01-10T14:36:15;-2.60;64.40
44843;DHT22;31884;52.538;13.820;2024-01-10T14:38:41;-2.60;64.40
44843;DHT22;31884;52.538;13.820;2024-01-10T14:41:07;-2.70;64.30
44843;DHT22;31884;52.538;13.820;2024-01-10T14:43:35;-2.70;65.10
44843;DHT22;31884;52.538;13.820;2024-01-10T14:46:01;-2.80;65.10
44843;DHT22;31884;52.538;13.820;2024-01-10T14:48:27;-2.80;65.40
44843;DHT22;31884;52.538;13.820;2024-01-10T14:50:53;-2.90;65.60
44843;DHT22;31884;52.538;13.820;2024-01-10T14:53:19;-3.00;65.50
44843;DHT22;31884;52.538;13.820;2024-01-10T14:55:44;-3.00;66.00
44843;DHT22;31884;52.538;13.820;2024-01-10T14:58:09;-3.10;66.40
44843;DHT22;31884;52.538;13.820;2024-01-10T15:00:35;-3.10;66.70
44843;DHT22;31884;52.538;13.820;2024-01-10T15:03:01;-3.20;66.90
44843;DHT22;31884;52.538;13.820;2024-01-10T15:05:29;-3.20;66.70
44843;DHT22;31884;52.538;13.820;2024-01-10T15:07:54;-3.30;67.00
44843;DHT22;31884;52.538;13.820;2024-01-10T15:10:20;-3.30;66.70
44843;DHT22;31884;52.538;13.820;2024-01-10T15:12:45;-3.40;67.50